Time;durP1;ratioP1;P1;durP2;ratioP2;P2;SDS_P1;SDS_P2;PMS_P1;PMS_P2;Temp;Humidity;BMP_temperature;BMP_pressure;BME280_temperature;BME280_humidity;BME280_pressure;Samples;Min_cycle;Max_cycle;Signal;HPM_P1;HPM_P2
2023/01/02 00:02:06;;;;;;;2.45;0.90;;;18.50;1.00;;;;;;5073668;28;20049;-39
2023/01/02 00:04:33;;;;;;;4.25;1.17;;;18.40;1.00;;;;;;5055883;28;20040;-39
2023/01/02 00:07:00;;;;;;;2.78;0.90;;;18.40;1.00;;;;;;5073530;28;20052;-39
2023/01/02 00:09:26;;;;;;;3.15;0.95;;;18.40;1.00;;;;;;5073634;28;20048;-39
2023/01/02 00:11:53;;;;;;;1.92;0.50;;;18.40;1.00;;;;;;5073613;28;20044;-39
2023/01/02 00:14:20;;;;;;;1.27;0.60;;;18.30;1.00;;;;;;5073344;28;20434;-39
2023/01/02 00:16:46;;;;;;;1.75;0.77;;;18.30;1.00;;;;;;5073367;28;20040;-39
2023/01/02 00:19:13;;;;;;;1.40;0.73;;;18.30;1.00;;;;;;5073196;28;20070;-39
2023/01/02 00:21:40;;;;;;;2.72;0.77;;;18.30;1.00;;;;;;5073384;28;20040;-39
2023/01/02 00:24:07;;;;;;;1.80;0.73;;;18.20;1.00;;;;;;5073195;28;20044;-38
2023/01/02 00:26:34;;;;;;;1.73;0.60;;;18.20;1.00;;;;;;5073319;28;20487;-38
2023/01/02 00:29:01;;;;;;;3.08;0.65;;;18.20;1.00;;;;;;5073234;28;20048;-39
2023/01/02 00:31:27;;;;;;;3.90;0.90;;;18.20;1.00;;;;;;5073149;28;20113;-39
2023/01/02 00:33:54;;;;;;;1.38;0.60;;;18.20;1.00;;;;;;5072906;28;20102;-39
2023/01/02 00:36:21;;;;;;;2.28;0.43;;;18.10;1.00;;;;;;5073008;28;20098;-38
2023/01/02 00:38:48;;;;;;;2.25;0.90;;;18.10;1.00;;;;;;5073161;28;20131;-39
2023/01/02 00:41:16;;;;;;;4.05;0.57;;;18.10;1.00;;;;;;5072961;28;20119;-39
2023/01/02 00:43:42;;;;;;;1.83;0.50;;;18.10;1.00;;;;;;5072694;28;20052;-38
2023/01/02 00:46:09;;;;;;;1.27;0.28;;;18.00;1.00;;;;;;5072837;28;20048;-39
2023/01/02 00:48:38;;;;;;;2.15;0.80;;;18.00;1.00;;;;;;5072702;28;20436;-39
2023/01/02 00:51:05;;;;;;;2.42;0.52;;;18.00;1.00;;;;;;5072878;28;20551;-38
2023/01/02 00:53:33;;;;;;;1.10;0.32;;;18.00;1.00;;;;;;5072467;28;20033;-38
2023/01/02 00:56:00;;;;;;;2.53;0.57;;;18.00;1.00;;;;;;5072723;28;20071;-39
2023/01/02 00:58:27;;;;;;;1.52;0.70;;;17.90;1.00;;;;;;5072615;28;20549;-38
2023/01/02 01:00:54;;;;;;;1.52;0.52;;;17.90;1.00;;;;;;5072523;28;20041;-38
2023/01/02 01:03:20;;;;;;;1.30;0.50;;;17.90;1.00;;;;;;5072062;28;20049;-39
2023/01/02 01:05:47;;;;;;;5.20;1.00;;;17.90;1.00;;;;;;5072526;28;20045;-38
2023/01/02 01:08:14;;;;;;;2.05;0.68;;;17.80;1.00;;;;;;5072439;28;20098;-39
2023/01/02 01:10:41;;;;;;;2.08;0.52;;;17.80;1.00;;;;;;5072297;28;20040;-38
2023/01/02 01:13:08;;;;;;;2.17;0.60;;;17.80;1.00;;;;;;5072170;28;20098;-38
2023/01/02 01:15:34;;;;;;;1.95;0.65;;;17.80;1.00;;;;;;5072065;28;20040;-39
2023/01/02 01:18:01;;;;;;;1.38;0.45;;;17.80;1.00;;;;;;5072166;28;20044;-38
2023/01/02 01:20:28;;;;;;;1.58;0.40;;;17.80;1.00;;;;;;5078932;22;20057;-37
2023/01/02 01:22:55;;;;;;;3.25;0.55;;;17.70;1.00;;;;;;5037188;28;20447;-37
2023/01/02 01:25:22;;;;;;;1.88;0.32;;;17.70;1.00;;;;;;5050201;28;20041;-37
2023/01/02 01:27:52;;;;;;;2.45;0.40;;;17.70;1.00;;;;;;5051908;28;20037;-37
2023/01/02 01:30:19;;;;;;;1.98;0.40;;;17.70;1.00;;;;;;5038805;28;20051;-37
2023/01/02 01:32:45;;;;;;;2.13;0.60;;;17.60;1.00;;;;;;5046017;28;20060;-38
2023/01/02 01:35:12;;;;;;;0.85;0.28;;;17.70;1.00;;;;;;5060748;28;20123;-37
2023/01/02 01:37:39;;;;;;;0.68;0.25;;;17.60;1.00;;;;;;5058478;28;20041;-38
2023/01/02 01:40:06;;;;;;;1.33;0.57;;;17.60;1.00;;;;;;5063595;28;20098;-38
2023/01/02 01:42:34;;;;;;;1.25;0.40;;;17.60;1.00;;;;;;5072130;28;20032;-37
2023/01/02 01:45:01;;;;;;;0.77;0.20;;;17.60;1.00;;;;;;5065147;28;20075;-37
2023/01/02 01:47:46;;;;;;;1.40;0.50;;;17.60;1.00;;;;;;5062646;28;20060;-37
2023/01/02 01:50:20;;;;;;;1.38;0.30;;;17.50;1.00;;;;;;5072027;28;20080;-38
2023/01/02 01:52:50;;;;;;;2.50;0.60;;;17.50;1.00;;;;;;5071673;28;20049;-38
2023/01/02 01:55:19;;;;;;;0.63;0.28;;;17.50;1.00;;;;;;5046574;28;20463;-38
2023/01/02 01:57:58;;;;;;;0.60;0.28;;;17.50;1.00;;;;;;5063326;28;20037;-38
2023/01/02 02:00:24;;;;;;;1.33;0.70;;;17.50;1.00;;;;;;5071846;28;20384;-38
2023/01/02 02:02:57;;;;;;;1.00;0.45;;;17.50;1.00;;;;;;5071776;28;20033;-39
2023/01/02 02:05:28;;;;;;;2.65;0.60;;;17.40;1.00;;;;;;5071784;28;20048;-39
2023/01/02 02:08:22;;;;;;;2.58;0.47;;;17.40;1.00;;;;;;5071745;28;20053;-39
2023/01/02 02:10:50;;;;;;;1.23;0.35;;;17.40;1.00;;;;;;5071963;28;20094;-38
2023/01/02 02:13:18;;;;;;;1.50;0.47;;;17.40;1.00;;;;;;5071332;28;20092;-39
2023/01/02 02:15:57;;;;;;;0.90;0.32;;;17.40;1.00;;;;;;5074480;28;20033;-38
2023/01/02 02:18:39;;;;;;;0.90;0.40;;;17.30;1.00;;;;;;5075760;28;20492;-38
2023/01/02 02:21:24;;;;;;;1.42;0.52;;;17.30;1.00;;;;;;5075736;28;20041;-38
2023/01/02 02:24:19;;;;;;;2.22;0.52;;;17.30;1.00;;;;;;5075531;28;20453;-38
2023/01/02 02:26:58;;;;;;;0.80;0.30;;;17.30;1.00;;;;;;5075729;28;20040;-39
2023/01/02 02:29:45;;;;;;;0.82;0.20;;;17.30;1.00;;;;;;5075829;28;20090;-38
2023/01/02 02:32:31;;;;;;;0.55;0.20;;;17.30;1.00;;;;;;5075506;28;20491;-38
2023/01/02 02:35:09;;;;;;;1.75;0.50;;;17.30;1.00;;;;;;5075532;28;20484;-38
2023/01/02 02:37:40;;;;;;;1.05;0.57;;;17.30;1.00;;;;;;5075651;28;20056;-39
2023/01/02 02:40:17;;;;;;;1.30;0.43;;;17.30;1.00;;;;;;5059684;28;20133;-37
2023/01/02 02:42:56;;;;;;;2.10;0.40;;;17.20;1.00;;;;;;5055149;28;20041;-38
2023/01/02 02:45:39;;;;;;;0.82;0.45;;;17.20;1.00;;;;;;5055336;28;20049;-38
2023/01/02 02:48:29;;;;;;;2.40;0.40;;;17.20;1.00;;;;;;5055224;28;20077;-38
2023/01/02 02:51:32;;;;;;;1.08;0.40;;;17.20;1.00;;;;;;5055204;28;20060;-37
2023/01/02 02:54:04;;;;;;;1.08;0.35;;;17.20;1.00;;;;;;5054716;28;20048;-38
2023/01/02 02:56:31;;;;;;;1.77;0.50;;;17.20;1.00;;;;;;5055102;28;20064;-38
2023/01/02 02:58:58;;;;;;;1.33;0.40;;;17.10;1.00;;;;;;5055017;28;20037;-38
2023/01/02 03:01:27;;;;;;;1.40;0.70;;;17.10;1.00;;;;;;5054839;28;20056;-38
2023/01/02 03:03:57;;;;;;;1.73;0.55;;;17.10;1.00;;;;;;5054710;28;20041;-37
2023/01/02 03:06:35;;;;;;;2.53;0.75;;;17.10;1.00;;;;;;5054741;28;20049;-38
2023/01/02 03:09:17;;;;;;;1.38;0.50;;;17.10;1.00;;;;;;5055105;28;20045;-38
2023/01/02 03:12:27;;;;;;;3.63;0.88;;;17.10;1.00;;;;;;5054812;28;20033;-37
2023/01/02 03:15:17;;;;;;;3.08;0.70;;;17.10;1.00;;;;;;5054400;28;20044;-36
2023/01/02 03:17:52;;;;;;;1.50;0.73;;;17.10;1.00;;;;;;5054674;28;20072;-36
2023/01/02 03:20:23;;;;;;;4.32;0.98;;;17.10;1.00;;;;;;5054433;28;20044;-38
2023/01/02 03:22:56;;;;;;;3.50;1.02;;;17.10;1.00;;;;;;5054354;28;20056;-36
2023/01/02 03:25:24;;;;;;;2.15;0.90;;;17.10;1.00;;;;;;5054387;28;20049;-36
2023/01/02 03:27:57;;;;;;;1.95;1.10;;;17.00;1.00;;;;;;5053404;28;20045;-37
2023/01/02 03:30:23;;;;;;;2.25;1.10;;;17.00;1.00;;;;;;5054427;28;20052;-37
2023/01/02 03:33:02;;;;;;;2.08;1.20;;;17.00;1.00;;;;;;5054077;28;20041;-37
2023/01/02 03:35:39;;;;;;;1.98;0.90;;;17.00;1.00;;;;;;5054303;28;20041;-37
2023/01/02 03:38:10;;;;;;;3.17;1.73;;;17.00;1.00;;;;;;5054421;28;20399;-36
2023/01/02 03:40:44;;;;;;;1.73;0.82;;;17.00;1.00;;;;;;5054242;28;20049;-38
2023/01/02 03:43:17;;;;;;;2.08;0.93;;;17.00;1.00;;;;;;5053881;28;20051;-37
2023/01/02 03:45:50;;;;;;;5.47;0.90;;;16.90;1.00;;;;;;5054263;28;20389;-37
2023/01/02 03:48:30;;;;;;;1.30;1.00;;;16.90;1.00;;;;;;5054212;28;20045;-37
2023/01/02 03:50:58;;;;;;;2.33;0.80;;;16.90;1.00;;;;;;5054011;28;20072;-37
2023/01/02 03:53:27;;;;;;;1.42;0.70;;;16.90;1.00;;;;;;5053636;28;20562;-37
2023/01/02 03:56:22;;;;;;;2.65;1.15;;;16.90;1.00;;;;;;5053914;28;20115;-37
2023/01/02 03:58:52;;;;;;;3.78;1.33;;;16.90;1.00;;;;;;5054010;28;20128;-37
2023/01/02 04:01:47;;;;;;;1.30;0.93;;;16.90;1.00;;;;;;5053711;28;20465;-37
2023/01/02 04:04:23;;;;;;;3.17;1.27;;;16.90;1.00;;;;;;5051671;28;20052;-37
2023/01/02 04:06:56;;;;;;;3.30;1.30;;;16.90;1.00;;;;;;5053605;28;20048;-37
2023/01/02 04:09:25;;;;;;;3.42;1.48;;;16.90;1.00;;;;;;5053546;28;20037;-38
2023/01/02 04:11:58;;;;;;;4.25;1.45;;;16.80;1.00;;;;;;5055574;28;20043;-37
2023/01/02 04:14:33;;;;;;;4.82;1.55;;;16.80;1.00;;;;;;5064509;28;20040;-36
2023/01/02 04:17:03;;;;;;;3.60;1.48;;;16.80;1.00;;;;;;5068456;28;20533;-37
2023/01/02 04:19:48;;;;;;;4.93;2.10;;;16.80;1.00;;;;;;5073356;28;20041;-38
2023/01/02 04:22:23;;;;;;;2.67;1.10;;;16.80;1.00;;;;;;5073236;28;20072;-37
2023/01/02 04:24:58;;;;;;;2.08;0.90;;;16.80;1.00;;;;;;5066850;28;20048;-38
2023/01/02 04:27:32;;;;;;;1.48;0.80;;;16.80;1.00;;;;;;5071624;28;20048;-38
2023/01/02 04:29:59;;;;;;;2.00;0.77;;;16.80;1.00;;;;;;5073165;28;20045;-38
2023/01/02 04:32:34;;;;;;;1.88;1.00;;;16.80;1.00;;;;;;5073157;28;20044;-37
2023/01/02 04:35:06;;;;;;;1.88;1.23;;;16.80;1.00;;;;;;5072872;28;20067;-36
2023/01/02 04:37:38;;;;;;;1.77;0.80;;;16.80;1.00;;;;;;5072848;28;20036;-37
2023/01/02 04:40:10;;;;;;;2.37;1.00;;;16.70;1.00;;;;;;5067281;28;20558;-37
2023/01/02 04:42:36;;;;;;;2.65;0.70;;;16.70;1.00;;;;;;5064510;28;20072;-37
2023/01/02 04:45:04;;;;;;;2.28;0.50;;;16.70;1.00;;;;;;5072866;28;20048;-37
2023/01/02 04:47:30;;;;;;;1.67;0.73;;;16.70;1.00;;;;;;5072983;28;20067;-36
2023/01/02 04:49:57;;;;;;;3.30;1.10;;;16.70;1.00;;;;;;5072786;28;20040;-37
2023/01/02 04:52:24;;;;;;;1.75;0.70;;;16.70;1.00;;;;;;5072679;28;20076;-37
2023/01/02 04:54:51;;;;;;;3.95;0.65;;;16.70;1.00;;;;;;5072338;28;20078;-37
2023/01/02 04:57:17;;;;;;;1.92;0.50;;;16.70;1.00;;;;;;5072821;28;20463;-37
2023/01/02 04:59:44;;;;;;;0.70;0.52;;;16.70;1.00;;;;;;5072655;28;20566;-35
2023/01/02 05:02:11;;;;;;;3.20;1.08;;;16.70;1.00;;;;;;5072320;28;20102;-37
2023/01/02 05:04:38;;;;;;;1.33;0.75;;;16.70;1.00;;;;;;5072428;28;20388;-37
2023/01/02 05:07:05;;;;;;;0.98;0.50;;;16.70;1.00;;;;;;5054728;28;20561;-37
2023/01/02 05:09:31;;;;;;;3.00;0.55;;;16.60;1.00;;;;;;5071093;28;20063;-37
2023/01/02 05:11:58;;;;;;;4.05;0.73;;;16.60;1.00;;;;;;5059062;28;20453;-38
2023/01/02 05:14:25;;;;;;;5.40;0.60;;;16.60;1.00;;;;;;5063705;28;20165;-37
2023/01/02 05:16:52;;;;;;;2.03;0.50;;;16.60;1.00;;;;;;5060771;28;20510;-38
2023/01/02 05:19:19;;;;;;;4.95;0.77;;;16.60;1.00;;;;;;5069758;28;20391;-37
2023/01/02 05:24:31;;;;;;;1.48;0.63;;;16.60;1.00;;;;;;5066508;28;20123;-36
2023/01/02 05:26:57;;;;;;;1.42;0.50;;;16.50;1.00;;;;;;5063598;28;20037;-37
2023/01/02 05:29:24;;;;;;;3.25;0.57;;;16.50;1.00;;;;;;5070405;28;20041;-37
2023/01/02 05:31:51;;;;;;;4.70;1.25;;;16.50;1.00;;;;;;5072132;28;20075;-37
2023/01/02 05:34:18;;;;;;;1.92;0.47;;;16.50;1.00;;;;;;5071814;28;20040;-37
2023/01/02 05:36:45;;;;;;;8.40;1.00;;;16.50;1.00;;;;;;5072010;28;20484;-37
2023/01/02 05:39:12;;;;;;;3.85;0.50;;;16.50;1.00;;;;;;5071997;28;20036;-37
2023/01/02 05:41:40;;;;;;;1.42;0.38;;;16.50;1.00;;;;;;5071988;28;20033;-37
2023/01/02 05:44:08;;;;;;;1.98;0.30;;;16.50;1.00;;;;;;5071783;28;20068;-38
2023/01/02 05:46:37;;;;;;;2.20;0.60;;;16.50;1.00;;;;;;5071863;28;20488;-36
2023/01/02 05:49:08;;;;;;;1.17;0.30;;;16.50;1.00;;;;;;5057831;28;20041;-37
2023/01/02 05:51:34;;;;;;;1.30;0.40;;;16.50;1.00;;;;;;5058687;28;20082;-38
2023/01/02 05:54:02;;;;;;;1.27;0.52;;;16.50;1.00;;;;;;5045243;28;20554;-38
2023/01/02 05:56:30;;;;;;;34.42;1.20;;;16.50;1.00;;;;;;5062302;28;20041;-38
2023/01/02 05:58:57;;;;;;;1.20;0.45;;;16.50;1.00;;;;;;5071870;28;20090;-38
2023/01/02 06:01:26;;;;;;;2.63;0.43;;;16.40;1.00;;;;;;5071513;28;20040;-38
2023/01/02 06:03:56;;;;;;;5.38;0.43;;;16.40;1.00;;;;;;5071552;28;20037;-37
2023/01/02 06:06:32;;;;;;;1.02;0.25;;;16.40;1.00;;;;;;5071799;28;20045;-38
2023/01/02 06:08:59;;;;;;;2.10;0.47;;;16.40;1.00;;;;;;5071738;28;20048;-38
2023/01/02 06:11:28;;;;;;;1.67;0.50;;;16.40;1.00;;;;;;5071567;28;20059;-37
2023/01/02 06:13:55;;;;;;;1.00;0.32;;;16.40;1.00;;;;;;5071310;28;20094;-35
2023/01/02 06:16:23;;;;;;;1.23;0.38;;;16.40;1.00;;;;;;5071670;28;20098;-38
2023/01/02 06:18:50;;;;;;;2.08;0.50;;;16.30;1.00;;;;;;5071580;28;20041;-36
2023/01/02 06:21:19;;;;;;;1.75;0.40;;;16.40;1.00;;;;;;5071482;28;20423;-36
2023/01/02 06:23:47;;;;;;;2.35;0.40;;;16.40;1.00;;;;;;5071357;28;20036;-36
2023/01/02 06:26:16;;;;;;;2.72;0.50;;;16.40;1.00;;;;;;5071499;28;20128;-37
2023/01/02 06:28:44;;;;;;;2.20;0.95;;;16.40;1.00;;;;;;5071673;28;20048;-37
2023/01/02 06:31:13;;;;;;;2.13;0.47;;;16.30;1.00;;;;;;5071443;28;20098;-36
2023/01/02 06:33:40;;;;;;;0.90;0.32;;;16.30;1.00;;;;;;5071553;28;20056;-37
2023/01/02 06:36:15;;;;;;;2.80;0.82;;;16.30;1.00;;;;;;5071323;28;20568;-37
2023/01/02 06:38:44;;;;;;;4.57;0.73;;;16.30;1.00;;;;;;5071499;28;20115;-37
2023/01/02 06:41:12;;;;;;;1.58;0.43;;;16.30;1.00;;;;;;5071287;28;20045;-36
2023/01/02 06:43:46;;;;;;;2.33;0.85;;;16.30;1.00;;;;;;5071224;28;20503;-37
2023/01/02 06:46:15;;;;;;;2.65;0.65;;;16.30;1.00;;;;;;5071375;28;20045;-37
2023/01/02 06:48:43;;;;;;;3.22;1.02;;;16.30;1.00;;;;;;5071472;28;20041;-36
2023/01/02 06:51:15;;;;;;;2.15;0.40;;;16.30;1.00;;;;;;5071251;28;20037;-37
2023/01/02 06:53:43;;;;;;;1.83;0.60;;;16.30;1.00;;;;;;5071050;28;20072;-37
2023/01/02 06:56:11;;;;;;;2.50;0.40;;;16.30;1.00;;;;;;5071224;28;20040;-37
2023/01/02 06:58:38;;;;;;;1.50;0.40;;;16.30;1.00;;;;;;5071205;28;20044;-36
2023/01/02 07:01:08;;;;;;;0.95;0.40;;;16.30;1.00;;;;;;5072422;28;20488;-36
2023/01/02 07:03:35;;;;;;;4.28;0.68;;;16.20;1.00;;;;;;5074631;28;20041;-38
2023/01/02 07:06:06;;;;;;;1.23;0.30;;;16.20;1.00;;;;;;5074766;28;20062;-37
2023/01/02 07:08:33;;;;;;;1.27;1.00;;;16.20;1.00;;;;;;5074890;28;20044;-38
2023/01/02 07:11:25;;;;;;;1.17;0.47;;;16.20;1.00;;;;;;5074733;28;20083;-37
2023/01/02 07:13:53;;;;;;;1.40;0.30;;;16.20;1.00;;;;;;5071266;28;20427;-37
2023/01/02 07:16:22;;;;;;;0.70;0.40;;;16.20;1.00;;;;;;5074544;28;20048;-37
2023/01/02 07:18:51;;;;;;;1.88;0.30;;;16.20;1.00;;;;;;5074640;28;20120;-37
2023/01/02 07:21:19;;;;;;;0.80;0.20;;;16.20;1.00;;;;;;5074375;28;20461;-36
2023/01/02 07:23:46;;;;;;;2.25;0.40;;;16.20;1.00;;;;;;5074384;28;20041;-37
2023/01/02 07:26:14;;;;;;;3.30;0.80;;;16.20;1.00;;;;;;5074584;28;20044;-37
2023/01/02 07:28:40;;;;;;;1.88;0.40;;;16.20;1.00;;;;;;5074503;28;20475;-37
2023/01/02 07:31:11;;;;;;;2.17;0.38;;;16.20;1.00;;;;;;5076645;22;20053;-38
2023/01/02 07:33:40;;;;;;;0.97;0.60;;;16.20;1.00;;;;;;5065735;28;20093;-38
2023/01/02 07:36:10;;;;;;;1.98;0.52;;;16.20;1.00;;;;;;5074249;28;20089;-38
2023/01/02 07:38:38;;;;;;;1.08;0.30;;;16.20;1.00;;;;;;5074320;28;20051;-38
2023/01/02 07:41:15;;;;;;;0.30;0.10;;;16.20;1.00;;;;;;5040986;28;20413;-38
2023/01/02 07:43:43;;;;;;;1.85;0.32;;;16.20;1.00;;;;;;5053985;28;20051;-38
2023/01/02 07:46:11;;;;;;;3.38;0.40;;;16.20;1.00;;;;;;5054098;28;20594;-38
2023/01/02 07:48:38;;;;;;;0.98;0.20;;;16.10;1.00;;;;;;5054278;28;20053;-38
2023/01/02 07:51:06;;;;;;;1.27;0.52;;;16.10;1.00;;;;;;5053934;28;20072;-38
2023/01/02 07:53:34;;;;;;;0.70;0.25;;;16.10;1.00;;;;;;5053769;28;20045;-38
2023/01/02 07:56:02;;;;;;;1.42;0.30;;;16.10;1.00;;;;;;5053836;28;20068;-38
2023/01/02 07:58:29;;;;;;;0.90;0.20;;;16.10;1.00;;;;;;5053671;28;20052;-38
2023/01/02 08:00:57;;;;;;;1.45;0.32;;;16.10;1.00;;;;;;5053701;28;20052;-38
2023/01/02 08:03:31;;;;;;;0.85;0.50;;;16.10;1.00;;;;;;5053557;28;20099;-38
2023/01/02 08:06:12;;;;;;;1.08;0.25;;;16.10;1.00;;;;;;5053620;28;20411;-38
2023/01/02 08:08:39;;;;;;;0.93;0.32;;;16.10;1.00;;;;;;5052559;28;20500;-38
2023/01/02 08:11:08;;;;;;;1.88;0.28;;;16.10;1.00;;;;;;5050008;28;20045;-38
2023/01/02 08:13:35;;;;;;;2.35;0.30;;;16.10;1.00;;;;;;5046527;28;20049;-38
2023/01/02 08:16:08;;;;;;;0.75;0.20;;;16.10;1.00;;;;;;5052840;28;20480;-38
2023/01/02 08:18:35;;;;;;;1.07;0.33;;;16.10;1.00;;;;;;5053416;28;20037;-38
2023/01/02 08:21:02;;;;;;;1.45;0.57;;;16.10;1.00;;;;;;5053223;28;20357;-38
2023/01/02 08:23:30;;;;;;;2.42;0.50;;;16.10;1.00;;;;;;5052963;28;20123;-38
2023/01/02 08:25:59;;;;;;;3.95;0.68;;;16.00;1.00;;;;;;5053442;28;20485;-38
2023/01/02 08:28:26;;;;;;;1.73;0.30;;;16.10;1.00;;;;;;5053172;28;20068;-38
2023/01/02 08:30:53;;;;;;;1.52;0.60;;;16.00;1.00;;;;;;5052346;28;20060;-38
2023/01/02 08:33:20;;;;;;;0.50;0.30;;;16.00;1.00;;;;;;5051982;28;20037;-38
2023/01/02 08:35:47;;;;;;;2.30;0.30;;;16.00;1.00;;;;;;5051917;28;20044;-38
2023/01/02 08:38:14;;;;;;;1.92;0.50;;;16.00;1.00;;;;;;5052043;28;20045;-38
2023/01/02 08:40:40;;;;;;;3.03;0.40;;;16.00;1.00;;;;;;5052404;28;20044;-38
2023/01/02 08:43:10;;;;;;;3.88;0.30;;;16.00;1.00;;;;;;5052008;28;20408;-39
2023/01/02 08:45:58;;;;;;;3.10;0.40;;;16.00;1.00;;;;;;5051905;28;20083;-38
2023/01/02 08:48:51;;;;;;;0.80;0.20;;;16.00;1.00;;;;;;5046671;28;20053;-38
2023/01/02 08:51:29;;;;;;;1.23;0.20;;;16.00;1.00;;;;;;5051840;28;20698;-38
2023/01/02 08:53:57;;;;;;;1.48;0.30;;;16.00;1.00;;;;;;5051614;28;20434;-38
2023/01/02 08:56:29;;;;;;;2.92;0.80;;;16.00;1.00;;;;;;5051824;28;20495;-38
2023/01/02 08:59:07;;;;;;;2.65;0.45;;;16.00;1.00;;;;;;5051801;28;20052;-38
2023/01/02 09:01:35;;;;;;;1.52;0.40;;;16.00;1.00;;;;;;5051797;28;20135;-38
2023/01/02 09:04:03;;;;;;;1.48;0.50;;;16.00;1.00;;;;;;5051294;28;20051;-38
2023/01/02 09:06:38;;;;;;;1.13;0.25;;;16.00;1.00;;;;;;5051769;28;20052;-38
2023/01/02 09:09:05;;;;;;;1.02;0.40;;;15.90;1.00;;;;;;5051592;28;20044;-38
2023/01/02 09:11:45;;;;;;;;;;;15.90;1.00;;;;;;5051932;28;20550;-38
2023/01/02 09:14:12;;;;;;;;;;;15.90;1.00;;;;;;5033812;28;19920;-38
2023/01/02 09:16:38;;;;;;;2.00;0.40;;;15.90;1.00;;;;;;5051514;28;19967;-38
2023/01/02 09:19:06;;;;;;;1.77;0.30;;;15.90;1.00;;;;;;5051515;28;20116;-38
2023/01/02 09:21:33;;;;;;;0.47;0.22;;;15.90;1.00;;;;;;5051468;28;20431;-38
2023/01/02 09:24:00;;;;;;;1.42;0.45;;;15.90;1.00;;;;;;5050944;28;20041;-38
2023/01/02 09:26:27;;;;;;;2.15;0.45;;;15.90;1.00;;;;;;5051454;28;20037;-38
2023/01/02 09:28:53;;;;;;;2.30;0.30;;;15.90;1.00;;;;;;5051386;28;20041;-38
2023/01/02 09:31:21;;;;;;;1.17;0.30;;;15.90;1.00;;;;;;5014621;28;1066758;-38
2023/01/02 09:33:48;;;;;;;0.45;0.20;;;15.90;1.00;;;;;;5051748;28;20045;-38
2023/01/02 09:36:17;;;;;;;3.15;0.52;;;15.90;1.00;;;;;;5052004;28;20045;-38
2023/01/02 09:38:56;;;;;;;0.80;0.30;;;15.90;1.00;;;;;;5052156;28;20496;-38
2023/01/02 09:41:36;;;;;;;1.63;0.50;;;15.90;1.00;;;;;;5051846;28;20099;-38
2023/01/02 09:44:30;;;;;;;1.73;0.40;;;15.90;1.00;;;;;;5051627;28;20040;-38
2023/01/02 09:47:05;;;;;;;1.70;0.30;;;15.80;1.00;;;;;;5034190;28;20052;-38
2023/01/02 09:49:47;;;;;;;0.63;0.20;;;15.90;1.00;;;;;;5051606;28;20128;-38
2023/01/02 09:52:19;;;;;;;2.70;0.30;;;15.80;1.00;;;;;;5051703;28;20044;-38
2023/01/02 09:54:50;;;;;;;0.77;0.28;;;15.80;1.00;;;;;;5051610;28;20107;-38
2023/01/02 09:57:26;;;;;;;0.98;0.40;;;15.80;1.00;;;;;;5033680;28;20478;-39
2023/01/02 10:00:04;;;;;;;0.55;0.20;;;15.80;1.00;;;;;;5051629;28;20120;-38
2023/01/02 10:02:50;;;;;;;1.83;0.27;;;15.80;1.00;;;;;;5051658;28;20045;-38
2023/01/02 10:05:39;;;;;;;3.22;0.45;;;15.80;1.00;;;;;;5051706;28;20051;-38
2023/01/02 10:08:24;;;;;;;0.95;0.35;;;15.80;1.00;;;;;;5051665;28;20481;-39
2023/01/02 10:11:09;;;;;;;0.50;0.28;;;15.80;1.00;;;;;;5051552;28;20040;-38
2023/01/02 10:14:09;;;;;;;2.85;0.30;;;15.80;1.00;;;;;;5051752;28;20052;-38
2023/01/02 10:16:49;;;;;;;0.40;0.20;;;15.80;1.00;;;;;;5051406;28;20202;-38
2023/01/02 10:19:43;;;;;;;0.85;0.40;;;15.80;1.00;;;;;;5051422;28;20102;-39
2023/01/02 10:22:16;;;;;;;2.42;0.60;;;15.80;1.00;;;;;;5051499;28;20056;-38
2023/01/02 10:24:43;;;;;;;3.22;0.50;;;15.80;1.00;;;;;;5051301;28;20074;-38
2023/01/02 10:27:19;;;;;;;1.50;0.75;;;15.80;1.00;;;;;;5051497;28;20056;-38
2023/01/02 10:30:13;;;;;;;1.70;0.30;;;15.80;1.00;;;;;;5051358;28;20045;-38
2023/01/02 10:32:46;;;;;;;2.58;1.08;;;15.80;1.00;;;;;;5051113;28;20095;-38
2023/01/02 10:35:49;;;;;;;0.93;0.30;;;15.80;1.00;;;;;;5051310;28;20128;-38
2023/01/02 10:38:35;;;;;;;3.13;1.55;;;15.80;1.00;;;;;;5037746;28;20057;-38
2023/01/02 10:41:15;;;;;;;3.13;0.40;;;15.80;1.00;;;;;;5037326;28;20614;-38
2023/01/02 10:43:53;;;;;;;1.10;0.30;;;15.80;1.00;;;;;;5037282;28;20079;-38
2023/01/02 10:46:20;;;;;;;1.77;0.52;;;15.80;1.00;;;;;;5055200;28;20045;-38
2023/01/02 10:48:48;;;;;;;2.17;0.28;;;15.70;1.00;;;;;;5055181;28;20116;-38
2023/01/02 10:51:19;;;;;;;2.37;0.40;;;15.70;1.00;;;;;;5055064;28;20446;-38
2023/01/02 10:54:02;;;;;;;1.42;0.22;;;15.70;1.00;;;;;;5054799;28;20480;-38
2023/01/02 10:56:33;;;;;;;1.85;0.45;;;15.70;1.00;;;;;;5054969;28;20045;-38
2023/01/02 10:59:01;;;;;;;5.03;0.80;;;15.70;1.00;;;;;;5054924;28;20045;-38
2023/01/02 11:01:28;;;;;;;3.00;0.52;;;15.70;1.00;;;;;;5037169;28;20539;-38
2023/01/02 11:03:56;;;;;;;3.58;0.47;;;15.70;1.00;;;;;;5054527;28;20507;-38
2023/01/02 11:06:30;;;;;;;6.85;1.00;;;15.70;1.00;;;;;;5054862;28;20063;-38
2023/01/02 11:09:21;;;;;;;3.97;0.50;;;15.70;1.00;;;;;;5054883;28;20563;-38
2023/01/02 11:11:56;;;;;;;2.47;0.47;;;15.70;1.00;;;;;;5054874;28;20488;-38
2023/01/02 11:14:34;;;;;;;3.85;0.88;;;15.70;1.00;;;;;;5054762;28;20037;-38
2023/01/02 11:17:09;;;;;;;1.83;0.30;;;15.70;1.00;;;;;;5054563;28;20407;-38
2023/01/02 11:19:50;;;;;;;3.65;0.47;;;15.70;1.00;;;;;;5054611;28;20044;-38
2023/01/02 11:22:30;;;;;;;5.22;0.47;;;15.70;1.00;;;;;;5054447;28;20090;-38
2023/01/02 11:25:02;;;;;;;8.63;0.75;;;15.70;1.00;;;;;;5054297;28;20055;-38
2023/01/02 11:27:40;;;;;;;1.38;0.52;;;15.70;1.00;;;;;;5054387;28;20103;-38
2023/01/02 11:30:23;;;;;;;2.35;0.50;;;15.70;1.00;;;;;;5054141;28;20056;-38
2023/01/02 11:33:02;;;;;;;4.10;1.17;;;15.70;1.00;;;;;;5036122;28;20053;-38
2023/01/02 11:35:49;;;;;;;5.13;0.70;;;15.70;1.00;;;;;;5054224;28;20760;-38
2023/01/02 11:38:22;;;;;;;1.35;0.43;;;15.70;1.00;;;;;;5054186;28;20049;-38
2023/01/02 11:40:58;;;;;;;2.35;1.30;;;15.70;1.00;;;;;;5054070;28;20059;-38
2023/01/02 11:43:50;;;;;;;4.22;0.88;;;15.70;1.00;;;;;;5053807;28;20128;-38
2023/01/02 11:46:34;;;;;;;3.13;0.60;;;15.70;1.00;;;;;;5036139;28;20071;-38
2023/01/02 11:49:21;;;;;;;;;;;15.70;1.00;;;;;;5053579;28;20049;-38
2023/01/02 11:51:57;;;;;;;2.25;0.82;;;15.70;1.00;;;;;;5053795;28;20395;-39
2023/01/02 11:54:48;;;;;;;1.10;0.35;;;15.70;1.00;;;;;;5053702;28;20044;-38
2023/01/02 11:57:43;;;;;;;1.52;0.50;;;15.60;1.00;;;;;;5036226;28;20044;-38
2023/01/02 12:00:13;;;;;;;4.25;1.15;;;15.70;1.00;;;;;;5053401;28;20118;-39
2023/01/02 12:02:43;;;;;;;1.75;0.40;;;15.70;1.00;;;;;;5053762;28;20049;-39
2023/01/02 12:05:13;;;;;;;4.60;0.55;;;15.70;1.00;;;;;;5053617;28;20041;-38
2023/01/02 12:07:44;;;;;;;2.00;0.47;;;15.70;1.00;;;;;;5053761;28;20047;-38
2023/01/02 12:10:31;;;;;;;3.97;0.82;;;15.70;1.00;;;;;;5053524;28;20041;-38
2023/01/02 12:13:36;;;;;;;2.50;0.50;;;15.70;1.00;;;;;;5053305;28;20077;-39
2023/01/02 12:16:09;;;;;;;4.15;1.52;;;15.70;1.00;;;;;;5053490;28;20420;-39
2023/01/02 12:18:50;;;;;;;;;;;15.60;1.00;;;;;;5053961;28;20495;-38
2023/01/02 12:21:28;;;;;;;2.53;0.68;;;15.60;1.00;;;;;;5053387;28;19924;-38
2023/01/02 12:24:14;;;;;;;2.92;1.23;;;15.60;1.00;;;;;;5053180;28;20507;-38
2023/01/02 12:26:58;;;;;;;2.58;0.52;;;15.60;1.00;;;;;;5053299;28;20048;-38
2023/01/02 12:29:33;;;;;;;;;;;15.60;1.00;;;;;;5053407;28;20049;-39
2023/01/02 12:32:32;;;;;;;6.28;1.13;;;15.60;1.00;;;;;;5053305;28;19924;-38
2023/01/02 12:35:42;;;;;;;2.30;0.73;;;15.60;1.00;;;;;;5034997;28;20068;-39
2023/01/02 12:38:12;;;;;;;3.88;0.77;;;15.60;1.00;;;;;;5035324;28;20186;-38
2023/01/02 12:41:06;;;;;;;4.22;0.55;;;15.60;1.00;;;;;;5052907;28;20037;-38
2023/01/02 12:43:55;;;;;;;2.20;0.73;;;15.60;1.00;;;;;;5052750;28;20049;-38
2023/01/02 12:47:06;;;;;;;4.90;1.13;;;15.60;1.00;;;;;;5052901;28;20114;-38
2023/01/02 12:50:12;;;;;;;4.13;0.60;;;15.60;1.00;;;;;;4992326;28;20049;-38
2023/01/02 12:52:57;;;;;;;1.65;0.57;;;15.60;1.00;;;;;;5052228;28;20103;-39
2023/01/02 12:56:01;;;;;;;2.15;0.63;;;15.60;1.00;;;;;;5052618;28;20068;-38
2023/01/02 12:58:54;;;;;;;2.75;1.13;;;15.60;1.00;;;;;;5052029;28;20041;-38
2023/01/02 13:01:50;;;;;;;2.28;0.60;;;15.60;1.00;;;;;;5052698;28;20066;-38
2023/01/02 13:04:25;;;;;;;4.15;0.90;;;15.60;1.00;;;;;;5052278;28;20041;-38
2023/01/02 13:07:00;;;;;;;5.43;1.48;;;15.60;1.00;;;;;;5034615;28;20095;-38
2023/01/02 13:09:43;;;;;;;2.75;0.77;;;15.60;1.00;;;;;;5052205;28;20082;-38
2023/01/02 13:12:16;;;;;;;7.00;1.00;;;15.60;1.00;;;;;;5034269;28;20045;-38
2023/01/02 13:14:45;;;;;;;;;;;15.60;1.00;;;;;;5052333;28;20041;-39
2023/01/02 13:17:35;;;;;;;3.00;0.40;;;15.60;1.00;;;;;;5050428;28;19967;-39
2023/01/02 13:20:02;;;;;;;3.15;0.70;;;15.60;1.00;;;;;;5033904;28;20179;-38
2023/01/02 13:22:40;;;;;;;4.13;0.80;;;15.60;1.00;;;;;;5051794;28;20345;-39
2023/01/02 13:25:16;;;;;;;2.38;0.52;;;15.60;1.00;;;;;;5051767;28;20040;-39
2023/01/02 13:27:44;;;;;;;3.63;0.68;;;15.60;1.00;;;;;;5051673;28;20037;-39
2023/01/02 13:30:33;;;;;;;2.42;0.95;;;15.60;1.00;;;;;;5065063;22;20048;-32
2023/01/02 13:33:01;;;;;;;6.18;1.20;;;15.60;1.00;;;;;;5018058;28;20425;-32
2023/01/02 13:35:35;;;;;;;3.97;1.05;;;15.60;1.00;;;;;;5030361;28;20080;-32